createdAt,value
2022-09-13T00:01:15.645Z,20.79
2022-09-13T00:03:43.377Z,20.81
2022-09-13T00:06:13.111Z,20.83
2022-09-13T00:08:41.221Z,20.81
2022-09-13T00:11:17.591Z,20.81
2022-09-13T00:13:45.682Z,20.82
2022-09-13T00:16:14.569Z,20.81
2022-09-13T00:18:42.949Z,20.83
2022-09-13T00:21:12.564Z,20.83
2022-09-13T00:23:41.459Z,20.80
2022-09-13T00:26:12.588Z,20.76
2022-09-13T00:28:40.791Z,20.71
2022-09-13T00:31:10.542Z,20.70
2022-09-13T00:33:38.765Z,20.70
2022-09-13T00:36:07.502Z,20.71
2022-09-13T00:38:36.851Z,20.72
2022-09-13T00:41:05.290Z,20.70
2022-09-13T00:43:46.924Z,20.66
2022-09-13T00:46:21.615Z,20.66
2022-09-13T00:48:52.063Z,20.63
2022-09-13T00:51:20.053Z,20.55
2022-09-13T00:53:52.069Z,20.53
2022-09-13T00:56:24.005Z,20.50
2022-09-13T00:58:58.955Z,20.47
2022-09-13T01:01:32.433Z,20.46
2022-09-13T01:04:01.618Z,20.46
2022-09-13T01:06:33.406Z,20.44
2022-09-13T01:09:04.349Z,20.46
2022-09-13T01:11:41.884Z,20.43
2022-09-13T01:14:11.395Z,20.46
2022-09-13T01:16:39.303Z,20.47
2022-09-13T01:19:07.028Z,20.46
2022-09-13T01:22:10.458Z,20.40
2022-09-13T01:24:58.083Z,20.34
2022-09-13T01:27:53.924Z,20.24
2022-09-13T01:30:23.990Z,20.23
2022-09-13T01:33:23.001Z,20.18
2022-09-13T01:36:14.522Z,20.23
2022-09-13T01:38:57.850Z,20.25
2022-09-13T01:41:50.671Z,20.19
2022-09-13T01:44:30.755Z,20.24
2022-09-13T01:47:07.610Z,20.26
2022-09-13T01:49:44.331Z,20.28
2022-09-13T01:52:22.745Z,20.30
2022-09-13T01:54:59.064Z,20.28
2022-09-13T01:57:34.086Z,20.28
2022-09-13T02:00:07.661Z,20.30
2022-09-13T02:02:42.197Z,20.27
2022-09-13T02:05:16.649Z,20.27
2022-09-13T02:07:47.757Z,20.29
2022-09-13T02:10:22.475Z,20.29
2022-09-13T02:12:53.836Z,20.31
2022-09-13T02:15:26.270Z,20.30
2022-09-13T02:18:03.428Z,20.28
2022-09-13T02:20:35.963Z,20.24
2022-09-13T02:23:10.793Z,20.23
2022-09-13T02:25:41.277Z,20.19
2022-09-13T02:28:16.236Z,20.19
2022-09-13T02:30:48.642Z,20.19
2022-09-13T02:33:23.284Z,20.16
2022-09-13T02:35:55.976Z,20.17
2022-09-13T02:38:29.394Z,20.19
2022-09-13T02:41:01.590Z,20.19
2022-09-13T02:43:35.804Z,20.22
2022-09-13T02:46:15.119Z,20.23
2022-09-13T02:48:53.679Z,20.21
2022-09-13T02:51:31.324Z,20.22
2022-09-13T02:54:10.780Z,20.21
2022-09-13T02:56:49.888Z,20.22
2022-09-13T02:59:20.531Z,20.26
2022-09-13T03:01:51.993Z,20.29
2022-09-13T03:04:21.482Z,20.30
2022-09-13T03:06:50.998Z,20.31
2022-09-13T03:09:19.576Z,20.30
2022-09-13T03:12:23.259Z,20.23
2022-09-13T03:14:57.907Z,20.29
2022-09-13T03:17:40.507Z,20.29
2022-09-13T03:20:13.834Z,20.28
2022-09-13T03:23:12.380Z,20.26
2022-09-13T03:25:57.833Z,20.21
2022-09-13T03:28:35.954Z,20.16
2022-09-13T03:31:08.773Z,20.10
2022-09-13T03:33:48.015Z,20.09
2022-09-13T03:36:22.879Z,20.10
2022-09-13T03:38:59.447Z,20.11
2022-09-13T03:41:32.733Z,20.12
2022-09-13T03:44:02.801Z,20.12
2022-09-13T03:46:34.933Z,20.08
2022-09-13T03:49:05.254Z,20.05
2022-09-13T03:51:34.840Z,20.05
2022-09-13T03:54:06.127Z,20.08
2022-09-13T03:56:34.073Z,20.09
2022-09-13T03:59:02.304Z,20.13
2022-09-13T04:01:31.160Z,20.17
2022-09-13T04:03:59.064Z,20.21
2022-09-13T04:06:26.836Z,20.24
2022-09-13T04:08:56.055Z,20.24
2022-09-13T04:11:24.246Z,20.27
2022-09-13T04:13:52.413Z,20.26
2022-09-13T04:16:20.234Z,20.26
2022-09-13T04:18:48.043Z,20.29
2022-09-13T04:21:16.733Z,20.31
2022-09-13T04:23:44.529Z,20.33
2022-09-13T04:26:13.705Z,20.35
2022-09-13T04:28:41.518Z,20.35
2022-09-13T04:31:09.417Z,20.33
2022-09-13T04:33:37.426Z,20.31
2022-09-13T04:36:05.462Z,20.31
2022-09-13T04:38:33.269Z,20.30
2022-09-13T04:41:01.008Z,20.31
2022-09-13T04:43:30.684Z,20.27
2022-09-13T04:46:01.018Z,20.24
2022-09-13T04:48:29.609Z,20.20
2022-09-13T04:51:02.987Z,20.19
2022-09-13T04:53:30.722Z,20.18
2022-09-13T04:56:02.654Z,20.19
2022-09-13T04:58:32.316Z,20.20
2022-09-13T05:01:02.791Z,20.20
2022-09-13T05:03:31.358Z,20.20
2022-09-13T05:06:03.763Z,20.21
2022-09-13T05:08:31.789Z,20.16
2022-09-13T05:10:59.632Z,20.14
2022-09-13T05:13:27.782Z,20.14
2022-09-13T05:16:01.093Z,20.14
2022-09-13T05:18:29.945Z,20.13
2022-09-13T05:20:58.415Z,20.11
2022-09-13T05:23:27.552Z,20.04
2022-09-13T05:25:55.536Z,20.01
2022-09-13T05:28:23.324Z,20.03
2022-09-13T05:31:00.285Z,20.02
2022-09-13T05:33:29.564Z,20.03
2022-09-13T05:35:57.851Z,20.03
2022-09-13T05:38:25.851Z,20.02
2022-09-13T05:40:56.378Z,20.04
2022-09-13T05:43:26.378Z,20.02
2022-09-13T05:46:03.577Z,19.97
2022-09-13T05:48:32.169Z,19.97
2022-09-13T05:51:07.011Z,19.94
2022-09-13T05:53:35.037Z,19.95
2022-09-13T05:56:03.917Z,19.96
2022-09-13T05:58:31.661Z,19.98
2022-09-13T06:00:59.513Z,20.02
2022-09-13T06:03:28.694Z,20.03
2022-09-13T06:05:57.510Z,20.02
2022-09-13T06:08:25.694Z,20.05
2022-09-13T06:10:58.172Z,20.07
2022-09-13T06:13:27.565Z,20.10
2022-09-13T06:15:56.680Z,20.08
2022-09-13T06:18:26.092Z,20.11
2022-09-13T06:20:59.301Z,20.13
2022-09-13T06:23:27.709Z,20.15
2022-09-13T06:26:02.821Z,20.16
2022-09-13T06:28:33.239Z,20.20
2022-09-13T06:31:06.749Z,20.18
2022-09-13T06:33:34.897Z,20.16
2022-09-13T06:36:06.061Z,20.19
2022-09-13T06:38:34.293Z,20.21
2022-09-13T06:41:04.555Z,20.24
2022-09-13T06:43:32.772Z,20.25
2022-09-13T06:46:02.260Z,20.29
2022-09-13T06:48:32.683Z,20.30
2022-09-13T06:51:01.831Z,20.31
2022-09-13T06:53:31.318Z,20.38
2022-09-13T06:56:03.434Z,20.43
2022-09-13T06:58:32.559Z,20.48
2022-09-13T07:01:10.790Z,20.52
2022-09-13T07:03:39.254Z,20.62
2022-09-13T07:06:12.121Z,20.64
2022-09-13T07:08:42.160Z,20.69
2022-09-13T07:11:10.579Z,20.74
2022-09-13T07:13:38.645Z,20.78
2022-09-13T07:16:09.063Z,20.96
2022-09-13T07:18:37.787Z,21.13
2022-09-13T07:21:07.955Z,21.17
2022-09-13T07:23:38.504Z,21.16
2022-09-13T07:26:08.838Z,21.16
2022-09-13T07:28:38.132Z,21.19
2022-09-13T07:31:08.164Z,21.28
2022-09-13T07:33:36.601Z,21.31
2022-09-13T07:36:06.646Z,21.35
2022-09-13T07:38:42.054Z,21.39
2022-09-13T07:41:14.687Z,21.48
2022-09-13T07:43:42.621Z,21.67
2022-09-13T07:46:12.345Z,21.79
2022-09-13T07:48:42.163Z,21.82
2022-09-13T07:51:12.008Z,21.87
2022-09-13T07:53:41.658Z,21.88
2022-09-13T07:56:12.893Z,21.89
2022-09-13T07:58:43.759Z,21.92
2022-09-13T08:01:14.635Z,21.98
2022-09-13T08:03:42.766Z,22.10
2022-09-13T08:06:10.770Z,22.24
2022-09-13T08:08:40.408Z,22.48
2022-09-13T08:11:08.362Z,22.68
2022-09-13T08:13:37.599Z,22.87
2022-09-13T08:16:06.837Z,23.02
2022-09-13T08:18:34.973Z,23.12
2022-09-13T08:21:03.118Z,23.17
2022-09-13T08:23:31.238Z,23.17
2022-09-13T08:26:02.644Z,23.17
2022-09-13T08:28:31.589Z,23.24
2022-09-13T08:31:06.472Z,23.28
2022-09-13T08:33:34.682Z,23.38
2022-09-13T08:36:03.286Z,23.46
2022-09-13T08:38:32.210Z,23.53
2022-09-13T08:41:03.347Z,23.63
2022-09-13T08:43:43.751Z,23.76
2022-09-13T08:46:24.897Z,23.99
2022-09-13T08:48:56.962Z,24.24
2022-09-13T08:51:38.725Z,24.38
2022-09-13T08:54:07.496Z,24.59
2022-09-13T08:56:42.779Z,24.81
2022-09-13T08:59:34.362Z,25.02
2022-09-13T09:02:21.764Z,25.17
2022-09-13T09:04:57.757Z,25.12
2022-09-13T09:07:29.188Z,25.07
2022-09-13T09:10:00.870Z,25.20
2022-09-13T09:12:35.400Z,25.37
2022-09-13T09:15:09.754Z,25.62
2022-09-13T09:17:47.651Z,25.78
2022-09-13T09:20:25.576Z,25.77
2022-09-13T09:22:55.150Z,25.90
2022-09-13T09:25:25.153Z,26.02
2022-09-13T09:27:53.668Z,26.11
2022-09-13T09:30:22.351Z,26.10
2022-09-13T09:33:28.326Z,26.10
2022-09-13T09:36:05.655Z,26.19
2022-09-13T09:38:37.727Z,26.26
2022-09-13T09:41:09.235Z,26.38
2022-09-13T09:43:47.656Z,26.50
2022-09-13T09:46:22.040Z,26.67
2022-09-13T09:48:56.655Z,26.80
2022-09-13T09:51:29.125Z,26.88
2022-09-13T09:54:05.179Z,27.03
2022-09-13T09:56:35.722Z,27.13
2022-09-13T09:59:03.554Z,27.26
2022-09-13T10:01:33.342Z,27.41
2022-09-13T10:04:09.672Z,27.51
2022-09-13T10:06:39.786Z,27.69
2022-09-13T10:09:16.087Z,27.85
2022-09-13T10:11:46.895Z,27.87
2022-09-13T10:14:42.750Z,27.71
2022-09-13T10:17:18.368Z,27.75
2022-09-13T10:19:56.340Z,27.82
2022-09-13T10:22:24.312Z,27.88
2022-09-13T10:24:52.050Z,27.88
2022-09-13T10:27:23.905Z,27.97
2022-09-13T10:29:55.342Z,28.09
2022-09-13T10:32:23.729Z,28.10
2022-09-13T10:34:52.505Z,27.98
2022-09-13T10:37:24.043Z,27.96
2022-09-13T10:39:58.229Z,27.99
2022-09-13T10:42:28.802Z,28.02
2022-09-13T10:44:59.210Z,28.15
2022-09-13T10:47:31.224Z,28.18
2022-09-13T10:50:00.377Z,28.31
2022-09-13T10:52:32.826Z,28.43
2022-09-13T10:55:33.819Z,28.62
2022-09-13T10:58:22.732Z,28.79
2022-09-13T11:01:22.148Z,28.94
2022-09-13T11:04:17.039Z,29.06
2022-09-13T11:06:58.481Z,29.24
2022-09-13T11:09:36.998Z,29.36
2022-09-13T11:12:14.352Z,29.47
2022-09-13T11:14:57.638Z,29.26
2022-09-13T11:17:51.739Z,29.30
2022-09-13T11:20:32.446Z,29.46
2022-09-13T11:23:23.070Z,29.56
2022-09-13T11:26:04.475Z,29.60
2022-09-13T11:28:41.930Z,29.66
2022-09-13T11:31:30.607Z,29.72
2022-09-13T11:34:14.287Z,29.86
2022-09-13T11:36:54.282Z,29.92
2022-09-13T11:39:32.200Z,29.94
2022-09-13T11:42:12.080Z,29.94
2022-09-13T11:44:57.165Z,30.04
2022-09-13T11:47:34.665Z,30.16
2022-09-13T11:50:19.347Z,30.27
2022-09-13T11:52:58.935Z,30.36
2022-09-13T11:55:30.937Z,30.45
2022-09-13T11:58:04.921Z,30.42
2022-09-13T12:00:41.393Z,30.42
2022-09-13T12:03:16.673Z,30.31
2022-09-13T12:05:50.052Z,30.30
2022-09-13T12:08:21.661Z,30.29
2022-09-13T12:10:53.954Z,30.33
2022-09-13T12:13:26.440Z,30.28
2022-09-13T12:15:58.604Z,30.25
2022-09-13T12:18:30.835Z,30.29
2022-09-13T12:21:07.327Z,30.37
2022-09-13T12:23:39.950Z,30.28
2022-09-13T12:26:12.792Z,30.14
2022-09-13T12:28:46.114Z,30.04
2022-09-13T12:31:19.656Z,30.16
2022-09-13T12:33:49.094Z,30.24
2022-09-13T12:36:38.881Z,30.21
2022-09-13T12:39:32.263Z,30.13
2022-09-13T12:42:23.540Z,30.22
2022-09-13T12:45:08.444Z,30.05
2022-09-13T12:47:54.432Z,30.06
2022-09-13T12:50:44.211Z,30.21
2022-09-13T12:53:30.362Z,30.37
2022-09-13T12:56:31.939Z,30.37
2022-09-13T12:59:22.901Z,30.37
2022-09-13T13:01:52.916Z,30.36
2022-09-13T13:04:25.302Z,30.25
2022-09-13T13:06:56.885Z,30.32
2022-09-13T13:09:38.405Z,30.50
2022-09-13T13:12:06.597Z,30.63
2022-09-13T13:14:53.388Z,30.51
2022-09-13T13:17:45.727Z,30.58
2022-09-13T13:20:42.728Z,30.74
2022-09-13T13:23:23.514Z,30.87
2022-09-13T13:26:01.401Z,31.05
2022-09-13T13:29:06.033Z,31.00
2022-09-13T13:31:39.459Z,31.09
2022-09-13T13:34:32.463Z,31.07
2022-09-13T13:37:04.277Z,31.08
2022-09-13T13:39:43.321Z,30.95
2022-09-13T13:42:26.267Z,31.03
2022-09-13T13:45:26.171Z,31.04
2022-09-13T13:48:10.905Z,31.26
2022-09-13T13:51:10.936Z,31.28
2022-09-13T13:53:42.325Z,31.39
2022-09-13T13:56:20.946Z,31.39
2022-09-13T13:58:53.372Z,31.53
2022-09-13T14:01:25.877Z,31.63
2022-09-13T14:04:29.705Z,31.58
2022-09-13T14:07:18.947Z,31.76
2022-09-13T14:09:55.718Z,31.90
2022-09-13T14:12:36.157Z,31.95
2022-09-13T14:15:17.386Z,31.92
2022-09-13T14:18:03.469Z,31.78
2022-09-13T14:20:31.292Z,31.69
2022-09-13T14:23:18.494Z,31.48
2022-09-13T14:25:54.602Z,31.50
2022-09-13T14:28:24.105Z,31.49
2022-09-13T14:30:55.620Z,31.45
2022-09-13T14:33:30.894Z,31.39
2022-09-13T14:36:05.548Z,31.22
2022-09-13T14:38:35.678Z,31.08
2022-09-13T14:41:15.250Z,31.03
2022-09-13T14:43:43.820Z,31.12
2022-09-13T14:46:17.575Z,31.13
2022-09-13T14:48:51.737Z,31.15
2022-09-13T14:51:24.918Z,31.19
2022-09-13T14:53:55.589Z,31.19
2022-09-13T14:56:34.006Z,31.00
2022-09-13T14:59:06.784Z,30.92
2022-09-13T15:01:37.096Z,30.82
2022-09-13T15:04:07.549Z,30.72
2022-09-13T15:06:39.098Z,30.64
2022-09-13T15:09:27.080Z,30.56
2022-09-13T15:12:01.132Z,30.68
2022-09-13T15:14:32.198Z,30.71
2022-09-13T15:17:08.039Z,30.63
2022-09-13T15:19:41.798Z,30.52
2022-09-13T15:22:17.190Z,30.37
2022-09-13T15:24:48.641Z,30.22
2022-09-13T15:27:22.159Z,30.08
2022-09-13T15:29:51.771Z,29.96
2022-09-13T15:32:25.759Z,29.92
2022-09-13T15:34:53.636Z,29.97
2022-09-13T15:37:31.254Z,29.93
2022-09-13T15:40:21.146Z,29.79
2022-09-13T15:42:52.575Z,29.81
2022-09-13T15:45:22.568Z,29.80
2022-09-13T15:47:52.231Z,29.67
2022-09-13T15:50:23.053Z,29.64
2022-09-13T15:52:50.952Z,29.56
2022-09-13T15:55:18.815Z,29.55
2022-09-13T15:57:47.681Z,29.52
2022-09-13T16:00:20.343Z,29.40
2022-09-13T16:02:48.262Z,29.29
2022-09-13T16:05:16.429Z,29.15
2022-09-13T16:07:45.099Z,28.99
2022-09-13T16:10:15.521Z,28.91
2022-09-13T16:12:43.425Z,28.86
2022-09-13T16:15:12.750Z,28.84
2022-09-13T16:17:42.463Z,28.77
2022-09-13T16:20:13.991Z,28.66
2022-09-13T16:22:42.517Z,28.50
2022-09-13T16:25:13.192Z,28.38
2022-09-13T16:27:41.583Z,28.35
2022-09-13T16:30:12.617Z,28.32
2022-09-13T16:32:42.446Z,28.32
2022-09-13T16:35:11.433Z,28.22
2022-09-13T16:37:39.851Z,28.11
2022-09-13T16:40:09.433Z,27.96
2022-09-13T16:42:37.541Z,27.87
2022-09-13T16:45:06.180Z,27.75
2022-09-13T16:47:34.068Z,27.71
2022-09-13T16:50:03.684Z,27.70
2022-09-13T16:52:31.559Z,27.74
2022-09-13T16:54:59.528Z,27.69
2022-09-13T16:57:27.708Z,27.66
2022-09-13T16:59:58.434Z,27.56
2022-09-13T17:02:27.185Z,27.55
2022-09-13T17:04:55.704Z,27.53
2022-09-13T17:07:24.925Z,27.51
2022-09-13T17:09:52.787Z,27.42
2022-09-13T17:12:20.861Z,27.42
2022-09-13T17:14:50.622Z,27.40
2022-09-13T17:17:19.270Z,27.30
2022-09-13T17:19:47.630Z,27.18
2022-09-13T17:22:16.502Z,27.10
2022-09-13T17:24:46.176Z,27.05
2022-09-13T17:27:13.969Z,27.02
2022-09-13T17:29:42.032Z,26.98
2022-09-13T17:32:10.112Z,26.91
2022-09-13T17:34:38.351Z,26.92
2022-09-13T17:37:07.283Z,26.90
2022-09-13T17:39:35.323Z,26.88
2022-09-13T17:42:05.154Z,26.87
2022-09-13T17:44:32.869Z,26.78
2022-09-13T17:47:02.362Z,26.69
2022-09-13T17:49:30.280Z,26.63
2022-09-13T17:51:58.213Z,26.61
2022-09-13T17:54:26.632Z,26.58
2022-09-13T17:56:54.449Z,26.59
2022-09-13T17:59:23.973Z,26.58
2022-09-13T18:01:54.170Z,26.57
2022-09-13T18:04:24.160Z,26.54
2022-09-13T18:06:52.477Z,26.46
2022-09-13T18:09:21.191Z,26.38
2022-09-13T18:11:49.054Z,26.34
2022-09-13T18:14:18.984Z,26.28
2022-09-13T18:16:55.406Z,26.28
2022-09-13T18:19:44.277Z,26.18
2022-09-13T18:22:11.774Z,26.21
2022-09-13T18:24:39.981Z,26.17
2022-09-13T18:27:07.848Z,26.18
2022-09-13T18:29:35.686Z,26.20
2022-09-13T18:32:05.223Z,26.22
2022-09-13T18:34:33.442Z,26.22
2022-09-13T18:37:01.248Z,26.20
2022-09-13T18:39:29.008Z,26.21
2022-09-13T18:41:56.806Z,26.20
2022-09-13T18:44:24.659Z,26.19
2022-09-13T18:46:54.158Z,26.19
2022-09-13T18:49:23.622Z,26.09
2022-09-13T18:51:51.587Z,26.06
2022-09-13T18:54:20.096Z,26.01
2022-09-13T18:56:48.760Z,25.99
2022-09-13T18:59:16.695Z,25.99
2022-09-13T19:01:45.973Z,25.95
2022-09-13T19:04:15.631Z,25.93
2022-09-13T19:06:46.514Z,25.88
2022-09-13T19:09:16.899Z,25.86
2022-09-13T19:11:48.510Z,25.82
2022-09-13T19:14:19.010Z,25.80
2022-09-13T19:16:47.321Z,25.74
2022-09-13T19:19:15.800Z,25.65
2022-09-13T19:21:45.399Z,25.57
2022-09-13T19:24:18.136Z,25.48
2022-09-13T19:26:48.643Z,25.39
2022-09-13T19:29:19.709Z,25.34
2022-09-13T19:31:49.824Z,25.27
2022-09-13T19:34:19.286Z,25.19
2022-09-13T19:36:50.493Z,25.13
2022-09-13T19:39:19.549Z,25.06
2022-09-13T19:41:47.417Z,25.04
2022-09-13T19:44:15.925Z,25.03
2022-09-13T19:46:44.334Z,25.02
2022-09-13T19:49:14.795Z,24.97
2022-09-13T19:51:48.792Z,24.85
2022-09-13T19:54:20.682Z,24.76
2022-09-13T19:56:50.137Z,24.73
2022-09-13T19:59:20.914Z,24.69
2022-09-13T20:01:49.346Z,24.65
2022-09-13T20:04:18.876Z,24.58
2022-09-13T20:06:48.848Z,24.55
2022-09-13T20:09:18.486Z,24.50
2022-09-13T20:11:48.796Z,24.46
2022-09-13T20:14:18.385Z,24.47
2022-09-13T20:16:46.657Z,24.37
2022-09-13T20:19:39.417Z,24.33
2022-09-13T20:22:06.874Z,24.25
2022-09-13T20:24:35.066Z,24.23
2022-09-13T20:27:04.601Z,24.22
2022-09-13T20:29:32.868Z,24.15
2022-09-13T20:32:02.216Z,24.11
2022-09-13T20:34:30.144Z,24.06
2022-09-13T20:36:57.982Z,24.03
2022-09-13T20:39:25.717Z,23.88
2022-09-13T20:41:54.675Z,23.87
2022-09-13T20:44:23.947Z,23.87
2022-09-13T20:46:52.036Z,23.78
2022-09-13T20:49:19.803Z,23.80
2022-09-13T20:51:49.316Z,23.72
2022-09-13T20:54:17.354Z,23.69
2022-09-13T20:56:46.317Z,23.64
2022-09-13T20:59:14.891Z,23.58
2022-09-13T21:01:44.455Z,23.51
2022-09-13T21:04:12.426Z,23.48
2022-09-13T21:07:01.581Z,23.47
2022-09-13T21:09:29.064Z,23.47
2022-09-13T21:11:56.928Z,23.49
2022-09-13T21:14:24.798Z,23.52
2022-09-13T21:16:54.361Z,23.48
2022-09-13T21:19:22.370Z,23.40
2022-09-13T21:21:50.191Z,23.34
2022-09-13T21:24:18.298Z,23.29
2022-09-13T21:26:46.025Z,23.28
2022-09-13T21:29:13.964Z,23.23
2022-09-13T21:31:42.099Z,23.21
2022-09-13T21:34:16.636Z,23.11
2022-09-13T21:36:45.168Z,23.11
2022-09-13T21:39:13.658Z,23.15
2022-09-13T21:41:42.358Z,23.13
2022-09-13T21:44:10.670Z,23.10
2022-09-13T21:46:40.293Z,23.12
2022-09-13T21:49:10.186Z,23.09
2022-09-13T21:51:41.482Z,22.98
2022-09-13T21:54:11.836Z,22.95
2022-09-13T21:56:41.242Z,22.93
2022-09-13T21:59:14.427Z,22.87
2022-09-13T22:01:43.871Z,22.83
2022-09-13T22:04:17.594Z,22.82
2022-09-13T22:06:48.109Z,22.86
2022-09-13T22:09:16.540Z,22.80
2022-09-13T22:11:47.312Z,22.84
2022-09-13T22:14:17.520Z,22.78
2022-09-13T22:16:49.913Z,22.73
2022-09-13T22:19:19.587Z,22.71
2022-09-13T22:21:50.349Z,22.73
2022-09-13T22:24:20.778Z,22.75
2022-09-13T22:26:50.228Z,22.71
2022-09-13T22:29:18.354Z,22.67
2022-09-13T22:31:48.183Z,22.68
2022-09-13T22:34:17.726Z,22.68
2022-09-13T22:36:46.049Z,22.65
2022-09-13T22:39:17.034Z,22.61
2022-09-13T22:41:45.787Z,22.57
2022-09-13T22:44:13.826Z,22.48
2022-09-13T22:46:43.406Z,22.47
2022-09-13T22:49:13.405Z,22.51
2022-09-13T22:51:41.404Z,22.51
2022-09-13T22:54:09.554Z,22.51
2022-09-13T22:56:38.894Z,22.47
2022-09-13T22:59:09.469Z,22.48
2022-09-13T23:01:38.348Z,22.49
2022-09-13T23:04:06.823Z,22.49
2022-09-13T23:06:35.705Z,22.51
2022-09-13T23:09:06.029Z,22.50
2022-09-13T23:11:35.906Z,22.51
2022-09-13T23:14:07.521Z,22.49
2022-09-13T23:16:36.923Z,22.48
2022-09-13T23:19:05.208Z,22.47
2022-09-13T23:21:35.407Z,22.46
2022-09-13T23:24:05.478Z,22.44
2022-09-13T23:26:34.071Z,22.43
2022-09-13T23:29:03.508Z,22.40
2022-09-13T23:31:35.051Z,22.37
2022-09-13T23:34:05.655Z,22.36
2022-09-13T23:36:38.218Z,22.34
2022-09-13T23:39:08.082Z,22.34
2022-09-13T23:41:36.291Z,22.32
2022-09-13T23:44:04.866Z,22.30
2022-09-13T23:46:34.259Z,22.30
2022-09-13T23:49:02.029Z,22.28
2022-09-13T23:51:29.917Z,22.26
2022-09-13T23:54:00.557Z,22.25
2022-09-13T23:56:30.572Z,22.22
2022-09-13T23:59:00.367Z,22.16
